Terminal Aerodrome Forecast
Issued by NWS Rapid City, SD

Home | Current Version | Previous Version | Text Only | Print | Product List | Glossary Off
Versions: 1 2 3 4 5 6 7 8 9 10 11 12 13 14

721
FTUS43 KUNR 262327
TAFRAP
TAF
KRAP 262327Z 2700/2724 15013KT P6SM BKN250
     FM270600 16010KT P6SM SCT250 WS020/18045KT
     FM271500 18015G25KT P6SM SCT150
     FM272000 32010KT P6SM SCT100=

USA.gov is the U.S. government's official web portal to all federal, state and local government web resources and services.